Time;durP1;ratioP1;P1;durP2;ratioP2;P2;SDS_P1;SDS_P2;PMS_P1;PMS_P2;Temp;Humidity;BMP_temperature;BMP_pressure;BME280_temperature;BME280_humidity;BME280_pressure;Samples;Min_cycle;Max_cycle;Signal;HPM_P1;HPM_P2
2024/01/24 00:01:00;;;;;;;9.68;9.25;;;;;;;;;;5020904;28;20495;-61
2024/01/24 00:03:26;;;;;;;10.18;9.68;;;;;;;;;;5029519;28;20034;-61
2024/01/24 00:05:51;;;;;;;10.38;9.88;;;;;;;;;;5028910;28;20026;-61
2024/01/24 00:08:16;;;;;;;10.55;10.05;;;;;;;;;;5028309;28;20049;-62
2024/01/24 00:10:42;;;;;;;9.65;9.25;;;;;;;;;;5027582;28;20100;-61
2024/01/24 00:13:07;;;;;;;10.32;9.82;;;;;;;;;;5022446;28;20064;-61
2024/01/24 00:15:33;;;;;;;9.70;9.30;;;;;;;;;;5020883;28;20036;-62
2024/01/24 00:17:58;;;;;;;10.43;9.93;;;;;;;;;;5022266;28;20590;-62
2024/01/24 00:20:23;;;;;;;9.90;9.40;;;;;;;;;;5028258;28;20091;-62
2024/01/24 00:22:49;;;;;;;10.23;9.73;;;;;;;;;;5026923;28;20092;-61
2024/01/24 00:25:14;;;;;;;10.68;10.18;;;;;;;;;;5030228;28;20014;-61
2024/01/24 00:27:40;;;;;;;9.43;9.02;;;;;;;;;;5023164;28;20045;-61
2024/01/24 00:30:05;;;;;;;9.73;9.32;;;;;;;;;;5023849;28;20044;-61
2024/01/24 00:32:31;;;;;;;9.50;9.10;;;;;;;;;;5027262;28;20487;-61
2024/01/24 00:34:56;;;;;;;9.52;9.13;;;;;;;;;;5029530;28;20527;-61
2024/01/24 00:37:22;;;;;;;10.25;9.75;;;;;;;;;;5024583;28;20036;-62
2024/01/24 00:39:47;;;;;;;10.20;9.70;;;;;;;;;;5027632;28;20530;-62
2024/01/24 00:42:13;;;;;;;10.57;10.07;;;;;;;;;;5033485;28;20048;-62
2024/01/24 00:44:39;;;;;;;9.68;9.25;;;;;;;;;;5031615;28;20056;-61
2024/01/24 00:47:04;;;;;;;9.48;9.07;;;;;;;;;;5029138;28;20060;-61
2024/01/24 00:49:30;;;;;;;10.00;9.50;;;;;;;;;;5030207;28;20515;-61
2024/01/24 00:51:55;;;;;;;10.30;9.80;;;;;;;;;;5030024;28;20033;-61
2024/01/24 00:54:21;;;;;;;10.30;9.80;;;;;;;;;;5032366;28;20033;-61
2024/01/24 00:56:46;;;;;;;10.30;9.80;;;;;;;;;;5030457;28;20463;-61
2024/01/24 00:59:11;;;;;;;9.70;9.30;;;;;;;;;;5030319;28;20029;-62
2024/01/24 01:01:37;;;;;;;9.90;9.40;;;;;;;;;;5023053;28;20095;-61
2024/01/24 01:04:03;;;;;;;9.60;9.20;;;;;;;;;;5033318;28;20018;-62
2024/01/24 01:06:29;;;;;;;10.10;9.60;;;;;;;;;;5032619;28;20044;-62
2024/01/24 01:08:54;;;;;;;10.25;9.75;;;;;;;;;;5020792;28;20503;-62
2024/01/24 01:11:19;;;;;;;10.40;9.90;;;;;;;;;;5033224;28;20037;-62
2024/01/24 01:13:45;;;;;;;9.70;9.30;;;;;;;;;;5028232;28;20028;-62
2024/01/24 01:16:10;;;;;;;10.10;9.60;;;;;;;;;;5031892;28;20029;-62
2024/01/24 01:18:35;;;;;;;10.35;9.85;;;;;;;;;;5027576;28;20091;-62
2024/01/24 01:21:01;;;;;;;9.60;9.20;;;;;;;;;;5026486;28;21193;-61
2024/01/24 01:23:26;;;;;;;9.70;9.30;;;;;;;;;;5031797;28;20021;-62
2024/01/24 01:25:52;;;;;;;10.02;9.52;;;;;;;;;;5032651;28;20414;-62
2024/01/24 01:28:17;;;;;;;10.52;10.02;;;;;;;;;;5030686;28;20026;-63
2024/01/24 01:30:42;;;;;;;10.20;9.70;;;;;;;;;;5030203;28;20036;-62
2024/01/24 01:33:08;;;;;;;10.02;9.52;;;;;;;;;;5032723;28;20059;-62
2024/01/24 01:35:33;;;;;;;9.80;9.40;;;;;;;;;;5030693;28;20120;-62
2024/01/24 01:37:58;;;;;;;9.95;9.45;;;;;;;;;;5031136;28;20025;-62
2024/01/24 01:40:24;;;;;;;10.38;9.88;;;;;;;;;;5032164;28;20468;-62
2024/01/24 01:42:49;;;;;;;10.52;10.02;;;;;;;;;;5028188;28;20018;-62
2024/01/24 01:45:15;;;;;;;10.50;10.00;;;;;;;;;;5028215;28;20025;-62
2024/01/24 01:47:40;;;;;;;10.77;10.27;;;;;;;;;;5026132;28;20380;-62
2024/01/24 01:50:08;;;;;;;10.10;9.60;;;;;;;;;;5025048;28;20072;-62
2024/01/24 01:52:33;;;;;;;10.05;9.55;;;;;;;;;;5027338;28;20096;-62
2024/01/24 01:54:59;;;;;;;11.20;10.60;;;;;;;;;;5026839;28;20419;-62
2024/01/24 01:57:25;;;;;;;10.43;9.93;;;;;;;;;;5035794;28;20096;-61
2024/01/24 01:59:51;;;;;;;10.30;9.80;;;;;;;;;;5033710;28;20034;-62
2024/01/24 02:02:16;;;;;;;10.00;9.50;;;;;;;;;;5032978;28;20024;-62
2024/01/24 02:04:41;;;;;;;10.35;9.85;;;;;;;;;;5031472;28;20022;-62
2024/01/24 02:07:07;;;;;;;10.27;9.77;;;;;;;;;;5028958;28;20718;-61
2024/01/24 02:09:32;;;;;;;9.90;9.40;;;;;;;;;;5022831;28;20021;-62
2024/01/24 02:11:57;;;;;;;10.15;9.65;;;;;;;;;;5030582;28;20072;-62
2024/01/24 02:14:23;;;;;;;10.38;9.88;;;;;;;;;;5034561;28;20537;-61
2024/01/24 02:16:48;;;;;;;10.68;10.18;;;;;;;;;;5040620;28;20060;-62
2024/01/24 02:19:13;;;;;;;10.27;9.77;;;;;;;;;;5031196;28;20052;-62
2024/01/24 02:21:39;;;;;;;9.95;9.45;;;;;;;;;;5029806;28;20428;-62
2024/01/24 02:24:12;;;;;;;9.63;9.23;;;;;;;;;;5029553;28;20028;-61
2024/01/24 02:26:37;;;;;;;9.80;9.30;;;;;;;;;;5029400;28;20029;-61
2024/01/24 02:29:04;;;;;;;10.02;9.52;;;;;;;;;;5032704;28;20151;-60
2024/01/24 02:31:29;;;;;;;10.40;9.90;;;;;;;;;;5041578;28;20502;-61
2024/01/24 02:33:54;;;;;;;10.57;10.07;;;;;;;;;;5036639;28;20030;-62
2024/01/24 02:36:20;;;;;;;10.07;9.57;;;;;;;;;;5035065;28;20029;-62
2024/01/24 02:38:45;;;;;;;10.25;9.75;;;;;;;;;;5028733;28;20453;-62
2024/01/24 02:41:11;;;;;;;10.20;9.70;;;;;;;;;;5034705;28;20097;-61
2024/01/24 02:43:36;;;;;;;10.30;9.80;;;;;;;;;;5030638;28;20028;-61
2024/01/24 02:46:02;;;;;;;10.35;9.85;;;;;;;;;;5031630;28;20021;-62
2024/01/24 02:48:27;;;;;;;10.38;9.88;;;;;;;;;;5030783;28;20067;-62
2024/01/24 02:50:53;;;;;;;10.20;9.70;;;;;;;;;;5030183;28;20025;-61
2024/01/24 02:53:18;;;;;;;10.00;9.50;;;;;;;;;;5024409;28;20049;-61
2024/01/24 02:55:44;;;;;;;10.07;9.57;;;;;;;;;;5030285;28;20029;-60
2024/01/24 02:58:09;;;;;;;10.07;9.57;;;;;;;;;;5028448;28;20490;-61
2024/01/24 03:00:35;;;;;;;9.80;9.30;;;;;;;;;;5033660;28;20028;-60
2024/01/24 03:03:00;;;;;;;9.50;9.10;;;;;;;;;;5024308;28;20476;-61
2024/01/24 03:05:26;;;;;;;9.85;9.40;;;;;;;;;;5031033;28;20013;-61
2024/01/24 03:07:51;;;;;;;9.98;9.48;;;;;;;;;;5031892;28;20037;-61
2024/01/24 03:10:17;;;;;;;9.80;9.30;;;;;;;;;;5028220;28;20041;-61
2024/01/24 03:12:42;;;;;;;10.05;9.55;;;;;;;;;;5036451;28;20388;-60
2024/01/24 03:15:08;;;;;;;9.35;8.95;;;;;;;;;;5027754;28;20088;-60
2024/01/24 03:17:33;;;;;;;9.55;9.15;;;;;;;;;;5032077;28;20476;-60
2024/01/24 03:19:59;;;;;;;10.10;9.60;;;;;;;;;;5025649;28;20479;-61
2024/01/24 03:22:25;;;;;;;10.10;9.60;;;;;;;;;;5023481;28;20045;-60
2024/01/24 03:24:53;;;;;;;10.77;10.18;;;;;;;;;;5028235;28;20033;-61
2024/01/24 03:27:18;;;;;;;9.55;9.15;;;;;;;;;;5027402;28;20022;-61
2024/01/24 03:29:44;;;;;;;10.98;10.38;;;;;;;;;;5025972;28;20025;-61
2024/01/24 03:32:09;;;;;;;9.45;9.05;;;;;;;;;;5027345;28;20024;-61
2024/01/24 03:34:35;;;;;;;9.50;9.10;;;;;;;;;;5021021;28;20021;-61
2024/01/24 03:37:00;;;;;;;10.18;9.68;;;;;;;;;;5021373;28;20049;-61
2024/01/24 03:39:25;;;;;;;9.63;9.18;;;;;;;;;;5023548;28;20509;-61
2024/01/24 03:41:51;;;;;;;9.98;9.48;;;;;;;;;;5030456;28;20022;-61
2024/01/24 03:44:16;;;;;;;9.80;9.30;;;;;;;;;;5029385;28;20031;-61
2024/01/24 03:46:41;;;;;;;9.65;9.18;;;;;;;;;;5028882;28;20045;-60
2024/01/24 03:49:07;;;;;;;10.20;9.70;;;;;;;;;;5030752;28;20084;-61
2024/01/24 03:51:32;;;;;;;9.38;8.98;;;;;;;;;;5031635;28;20017;-61
2024/01/24 03:53:57;;;;;;;9.55;9.15;;;;;;;;;;5029145;28;20459;-61
2024/01/24 03:56:23;;;;;;;10.25;9.75;;;;;;;;;;5029977;28;20423;-62
2024/01/24 03:58:48;;;;;;;10.05;9.55;;;;;;;;;;5028616;28;20039;-62
2024/01/24 04:01:14;;;;;;;10.93;10.32;;;;;;;;;;5029475;28;20022;-61
2024/01/24 04:03:39;;;;;;;10.20;9.70;;;;;;;;;;5031543;28;20026;-61
2024/01/24 04:06:05;;;;;;;10.90;10.30;;;;;;;;;;5027100;28;20482;-60
2024/01/24 04:08:30;;;;;;;9.48;9.07;;;;;;;;;;5029844;28;20491;-61
2024/01/24 04:10:56;;;;;;;10.25;9.75;;;;;;;;;;5033330;28;20026;-61
2024/01/24 04:13:21;;;;;;;10.60;10.10;;;;;;;;;;5027810;28;20084;-61
2024/01/24 04:15:46;;;;;;;10.27;9.77;;;;;;;;;;5032741;28;20047;-61
2024/01/24 04:18:12;;;;;;;10.45;9.95;;;;;;;;;;5034686;28;20052;-61
2024/01/24 04:20:37;;;;;;;10.07;9.57;;;;;;;;;;5027438;28;20018;-61
2024/01/24 04:23:03;;;;;;;10.43;9.93;;;;;;;;;;5032983;28;20018;-61
2024/01/24 04:25:29;;;;;;;10.45;9.95;;;;;;;;;;5027762;28;20052;-61
2024/01/24 04:27:54;;;;;;;10.77;10.25;;;;;;;;;;5032242;28;20509;-62
2024/01/24 04:30:20;;;;;;;11.70;11.05;;;;;;;;;;5028241;28;20026;-61
2024/01/24 04:32:45;;;;;;;10.63;10.13;;;;;;;;;;5028012;28;20050;-60
2024/01/24 04:35:10;;;;;;;10.30;9.80;;;;;;;;;;5031971;28;20025;-61
2024/01/24 04:37:36;;;;;;;10.70;10.20;;;;;;;;;;5032431;28;20475;-61
2024/01/24 04:40:01;;;;;;;10.52;10.02;;;;;;;;;;5034354;28;20418;-61
2024/01/24 04:42:26;;;;;;;10.73;10.23;;;;;;;;;;5031131;28;20384;-62
2024/01/24 04:44:52;;;;;;;10.60;10.10;;;;;;;;;;5033255;28;20015;-62
2024/01/24 04:47:18;;;;;;;11.00;10.43;;;;;;;;;;5026361;28;20029;-62
2024/01/24 04:49:43;;;;;;;10.68;10.18;;;;;;;;;;5029424;28;20136;-62
2024/01/24 04:52:09;;;;;;;11.10;10.52;;;;;;;;;;5031229;28;20053;-61
2024/01/24 04:54:34;;;;;;;10.55;10.05;;;;;;;;;;5029255;28;20030;-61
2024/01/24 04:57:01;;;;;;;10.50;10.00;;;;;;;;;;5029461;28;20076;-62
2024/01/24 04:59:26;;;;;;;10.40;9.90;;;;;;;;;;5031896;28;20017;-61
2024/01/24 05:01:51;;;;;;;11.20;10.60;;;;;;;;;;5028150;28;20502;-61
2024/01/24 05:04:16;;;;;;;10.95;10.35;;;;;;;;;;5031519;28;20026;-61
2024/01/24 05:06:42;;;;;;;10.88;10.27;;;;;;;;;;5029500;28;20018;-61
2024/01/24 05:09:08;;;;;;;9.98;9.48;;;;;;;;;;5033948;28;20092;-61
2024/01/24 05:11:33;;;;;;;10.45;9.95;;;;;;;;;;5026604;28;20037;-61
2024/01/24 05:14:00;;;;;;;10.30;9.80;;;;;;;;;;5029514;28;20048;-62
2024/01/24 05:16:26;;;;;;;10.30;9.80;;;;;;;;;;5036172;28;20030;-62
2024/01/24 05:18:51;;;;;;;11.07;10.48;;;;;;;;;;5036520;28;20025;-62
2024/01/24 05:21:16;;;;;;;10.55;10.05;;;;;;;;;;5029777;28;20029;-61
2024/01/24 05:23:42;;;;;;;10.30;9.80;;;;;;;;;;5029325;28;20009;-62
2024/01/24 05:26:08;;;;;;;9.85;9.40;;;;;;;;;;5030858;28;20476;-62
2024/01/24 05:28:34;;;;;;;10.40;9.90;;;;;;;;;;5033029;28;20025;-61
2024/01/24 05:30:59;;;;;;;11.43;10.82;;;;;;;;;;5029176;28;20025;-62
2024/01/24 05:33:25;;;;;;;10.63;10.13;;;;;;;;;;5047895;28;20026;-62
2024/01/24 05:35:52;;;;;;;10.00;9.50;;;;;;;;;;5031249;28;20141;-61
2024/01/24 05:38:17;;;;;;;10.30;9.80;;;;;;;;;;5029362;28;20022;-62
2024/01/24 05:40:42;;;;;;;10.90;10.30;;;;;;;;;;5026463;28;20067;-61
2024/01/24 05:43:08;;;;;;;10.35;9.85;;;;;;;;;;5023260;28;20040;-62
2024/01/24 05:45:33;;;;;;;10.32;9.82;;;;;;;;;;5038565;28;20029;-62
2024/01/24 05:47:58;;;;;;;9.80;9.38;;;;;;;;;;5024213;28;20021;-62
2024/01/24 05:50:24;;;;;;;9.90;9.40;;;;;;;;;;5031469;28;20062;-61
2024/01/24 05:52:49;;;;;;;10.45;9.95;;;;;;;;;;5032632;28;20045;-61
2024/01/24 05:55:15;;;;;;;10.50;10.00;;;;;;;;;;5030161;28;20027;-61
2024/01/24 05:57:41;;;;;;;9.98;9.48;;;;;;;;;;5025041;28;20096;-60
2024/01/24 06:00:13;;;;;;;10.43;9.93;;;;;;;;;;5032090;28;20092;-61
2024/01/24 06:02:40;;;;;;;10.13;9.63;;;;;;;;;;5025081;28;20013;-62
2024/01/24 06:05:06;;;;;;;9.90;9.40;;;;;;;;;;5032490;28;20025;-62
2024/01/24 06:07:31;;;;;;;10.02;9.52;;;;;;;;;;5029880;28;20048;-62
2024/01/24 06:09:57;;;;;;;10.23;9.73;;;;;;;;;;5030196;28;20559;-62
2024/01/24 06:12:23;;;;;;;10.13;9.63;;;;;;;;;;5027822;28;20021;-62
2024/01/24 06:14:49;;;;;;;10.10;9.60;;;;;;;;;;5030595;28;20033;-62
2024/01/24 06:17:15;;;;;;;10.50;10.00;;;;;;;;;;5030829;28;20028;-61
2024/01/24 06:19:40;;;;;;;10.30;9.80;;;;;;;;;;5029504;28;20025;-61
2024/01/24 06:22:05;;;;;;;9.93;9.43;;;;;;;;;;5025404;28;20092;-61
2024/01/24 06:24:31;;;;;;;9.05;8.65;;;;;;;;;;5024111;28;20475;-61
2024/01/24 06:26:57;;;;;;;9.77;9.27;;;;;;;;;;5042742;28;20048;-61
2024/01/24 06:29:22;;;;;;;9.90;9.40;;;;;;;;;;5024808;28;20116;-62
2024/01/24 06:31:48;;;;;;;10.20;9.70;;;;;;;;;;5024070;28;20566;-63
2024/01/24 06:34:13;;;;;;;9.75;9.25;;;;;;;;;;5030505;28;20088;-61
2024/01/24 06:36:39;;;;;;;8.52;8.13;;;;;;;;;;5031400;28;20022;-61
2024/01/24 06:39:06;;;;;;;10.02;9.52;;;;;;;;;;5025982;28;20067;-60
2024/01/24 06:41:31;;;;;;;9.43;9.02;;;;;;;;;;5025706;28;20014;-62
2024/01/24 06:43:56;;;;;;;9.95;9.45;;;;;;;;;;5026311;28;20024;-61
2024/01/24 06:46:23;;;;;;;10.65;10.15;;;;;;;;;;5026164;28;20333;-62
2024/01/24 06:48:48;;;;;;;10.43;9.93;;;;;;;;;;5030045;28;20484;-61
2024/01/24 06:51:15;;;;;;;10.85;10.35;;;;;;;;;;5030542;28;20030;-61
2024/01/24 06:53:40;;;;;;;10.02;9.52;;;;;;;;;;5027313;28;20045;-61
2024/01/24 06:56:06;;;;;;;10.50;10.00;;;;;;;;;;5026932;28;20786;-61
2024/01/24 06:58:31;;;;;;;10.60;10.10;;;;;;;;;;5027672;28;20025;-60
2024/01/24 07:00:57;;;;;;;10.50;10.00;;;;;;;;;;5023243;28;20080;-61
2024/01/24 07:03:22;;;;;;;10.45;9.95;;;;;;;;;;5031769;28;20455;-63
2024/01/24 07:05:47;;;;;;;11.20;10.70;;;;;;;;;;5026493;28;20052;-61
2024/01/24 07:08:13;;;;;;;11.02;10.52;;;;;;;;;;5031595;28;20021;-62
2024/01/24 07:10:39;;;;;;;11.43;10.93;;;;;;;;;;5024921;28;20446;-61
2024/01/24 07:13:05;;;;;;;10.65;10.15;;;;;;;;;;5027720;28;20024;-61
2024/01/24 07:15:30;;;;;;;11.13;10.63;;;;;;;;;;5024714;28;20368;-61
2024/01/24 07:17:56;;;;;;;11.63;11.13;;;;;;;;;;5032801;28;20450;-61
2024/01/24 07:20:22;;;;;;;11.57;11.07;;;;;;;;;;5022316;28;20030;-61
2024/01/24 07:22:47;;;;;;;11.77;11.27;;;;;;;;;;5022641;28;20076;-60
2024/01/24 07:25:12;;;;;;;12.02;11.52;;;;;;;;;;5028334;28;20500;-62
2024/01/24 07:27:38;;;;;;;12.07;11.57;;;;;;;;;;5029282;28;20062;-64
2024/01/24 07:30:04;;;;;;;11.55;11.05;;;;;;;;;;5026461;28;20064;-64
2024/01/24 07:32:30;;;;;;;11.98;11.48;;;;;;;;;;5026487;28;20116;-61
2024/01/24 07:34:55;;;;;;;12.45;11.88;;;;;;;;;;5028408;28;20579;-60
2024/01/24 07:37:20;;;;;;;12.27;11.75;;;;;;;;;;5023229;28;20021;-61
2024/01/24 07:39:46;;;;;;;11.90;11.40;;;;;;;;;;5023610;28;20120;-61
2024/01/24 07:42:11;;;;;;;12.60;12.00;;;;;;;;;;5022969;28;20193;-61
2024/01/24 07:44:36;;;;;;;12.10;11.60;;;;;;;;;;5029470;28;20029;-61
2024/01/24 07:47:03;;;;;;;12.80;12.20;;;;;;;;;;5023999;28;20049;-61
2024/01/24 07:49:29;;;;;;;12.50;11.90;;;;;;;;;;5028615;28;20018;-60
2024/01/24 07:51:54;;;;;;;12.50;11.90;;;;;;;;;;5025737;28;20042;-61
2024/01/24 07:54:19;;;;;;;12.65;12.05;;;;;;;;;;5027810;28;20022;-60
2024/01/24 07:56:45;;;;;;;12.65;12.05;;;;;;;;;;5030627;28;20017;-60
2024/01/24 07:59:13;;;;;;;12.60;12.00;;;;;;;;;;5028829;28;20060;-61
2024/01/24 08:01:38;;;;;;;12.82;12.23;;;;;;;;;;5030504;28;20087;-61
2024/01/24 08:04:04;;;;;;;12.90;12.30;;;;;;;;;;5025510;28;20053;-61
2024/01/24 08:06:29;;;;;;;12.45;11.90;;;;;;;;;;5034587;28;20491;-63
2024/01/24 08:08:55;;;;;;;12.45;11.88;;;;;;;;;;5028459;28;20494;-64
2024/01/24 08:11:22;;;;;;;12.50;11.90;;;;;;;;;;5029251;28;20394;-61
2024/01/24 08:13:48;;;;;;;13.00;12.40;;;;;;;;;;5027380;28;20033;-61
2024/01/24 08:16:14;;;;;;;13.13;12.52;;;;;;;;;;5023607;28;20407;-61
2024/01/24 08:18:40;;;;;;;12.88;12.27;;;;;;;;;;5028390;28;20531;-62
2024/01/24 08:21:05;;;;;;;12.80;12.20;;;;;;;;;;5024928;28;20113;-62
2024/01/24 08:23:31;;;;;;;12.63;12.02;;;;;;;;;;5032390;28;20018;-60
2024/01/24 08:25:56;;;;;;;12.95;12.35;;;;;;;;;;5026932;28;20388;-60
2024/01/24 08:28:22;;;;;;;13.00;12.40;;;;;;;;;;5028280;28;20026;-61
2024/01/24 08:30:47;;;;;;;12.82;12.23;;;;;;;;;;5028274;28;20025;-61
2024/01/24 08:33:12;;;;;;;12.80;12.20;;;;;;;;;;5031571;28;20025;-60
2024/01/24 08:35:38;;;;;;;12.93;12.32;;;;;;;;;;5034702;28;20052;-61
2024/01/24 08:38:03;;;;;;;13.18;12.57;;;;;;;;;;5034356;28;20044;-63
2024/01/24 08:40:29;;;;;;;13.00;12.40;;;;;;;;;;5028773;28;20097;-60
2024/01/24 08:42:54;;;;;;;12.95;12.35;;;;;;;;;;5029596;28;20045;-61
2024/01/24 08:45:19;;;;;;;12.90;12.30;;;;;;;;;;5031279;28;20045;-60
2024/01/24 08:47:45;;;;;;;12.90;12.30;;;;;;;;;;5028234;28;20017;-61
2024/01/24 08:50:11;;;;;;;13.20;12.60;;;;;;;;;;5025081;28;20059;-61
2024/01/24 08:52:37;;;;;;;12.77;12.18;;;;;;;;;;5047690;28;20081;-61
2024/01/24 08:55:02;;;;;;;12.68;12.07;;;;;;;;;;5024452;28;20021;-61
2024/01/24 08:57:27;;;;;;;12.75;12.15;;;;;;;;;;5029159;28;20025;-62
2024/01/24 08:59:54;;;;;;;12.90;12.30;;;;;;;;;;5030867;28;20024;-62
2024/01/24 09:02:19;;;;;;;13.20;12.60;;;;;;;;;;5027481;28;20029;-62
2024/01/24 09:04:46;;;;;;;12.70;12.10;;;;;;;;;;5025952;28;20014;-62
2024/01/24 09:07:14;;;;;;;12.45;11.88;;;;;;;;;;5027491;28;20017;-62
2024/01/24 09:09:39;;;;;;;12.57;11.98;;;;;;;;;;5035019;28;20131;-62
2024/01/24 09:12:04;;;;;;;12.57;11.98;;;;;;;;;;5033673;28;20100;-62
2024/01/24 09:14:30;;;;;;;12.60;12.00;;;;;;;;;;5032232;28;20132;-61
2024/01/24 09:16:55;;;;;;;13.05;12.45;;;;;;;;;;5032888;28;20088;-61
2024/01/24 09:19:21;;;;;;;12.90;12.30;;;;;;;;;;5033866;28;20485;-62
2024/01/24 09:21:46;;;;;;;12.77;12.18;;;;;;;;;;5031291;28;20026;-61
2024/01/24 09:24:12;;;;;;;12.57;11.98;;;;;;;;;;5028106;28;20037;-61
2024/01/24 09:26:37;;;;;;;12.45;11.88;;;;;;;;;;5024214;28;20395;-61
2024/01/24 09:29:02;;;;;;;12.32;11.80;;;;;;;;;;5023662;28;20026;-62
2024/01/24 09:31:29;;;;;;;13.30;12.70;;;;;;;;;;5027605;28;20025;-62
2024/01/24 09:33:55;;;;;;;12.60;12.00;;;;;;;;;;5023567;28;20038;-61
2024/01/24 09:36:20;;;;;;;12.65;12.05;;;;;;;;;;5031020;28;20027;-63
2024/01/24 09:38:45;;;;;;;12.52;11.93;;;;;;;;;;5028921;28;20029;-61
2024/01/24 09:41:16;;;;;;;12.82;12.23;;;;;;;;;;5029747;28;20017;-61
2024/01/24 09:43:42;;;;;;;12.63;12.02;;;;;;;;;;5032031;28;21801;-62
2024/01/24 09:46:11;;;;;;;13.35;12.75;;;;;;;;;;5024236;28;20022;-60
2024/01/24 09:48:36;;;;;;;13.02;12.43;;;;;;;;;;5032699;28;20547;-62
2024/01/24 09:51:01;;;;;;;13.18;12.57;;;;;;;;;;5025395;28;20038;-63
2024/01/24 09:53:28;;;;;;;13.32;12.73;;;;;;;;;;5024241;28;20087;-61
2024/01/24 09:55:54;;;;;;;13.43;12.82;;;;;;;;;;5026468;28;20032;-61
2024/01/24 09:58:19;;;;;;;13.15;12.55;;;;;;;;;;5024100;28;20021;-61
2024/01/24 10:00:46;;;;;;;12.77;12.18;;;;;;;;;;5028395;28;20438;-61
2024/01/24 10:03:12;;;;;;;13.55;12.85;;;;;;;;;;5028169;28;20068;-60
2024/01/24 10:05:38;;;;;;;12.93;12.32;;;;;;;;;;5030008;28;20021;-61
2024/01/24 10:08:03;;;;;;;13.60;12.90;;;;;;;;;;5030269;28;20018;-61
2024/01/24 10:10:29;;;;;;;11.70;11.20;;;;;;;;;;5029733;28;20031;-61
2024/01/24 10:12:55;;;;;;;12.05;11.45;;;;;;;;;;5023432;28;20025;-62
2024/01/24 10:15:21;;;;;;;12.55;11.95;;;;;;;;;;5022114;28;20029;-61
2024/01/24 10:17:46;;;;;;;12.75;12.13;;;;;;;;;;5032036;28;20506;-61
2024/01/24 10:20:12;;;;;;;13.95;13.20;;;;;;;;;;5027667;28;20025;-61
2024/01/24 10:22:42;;;;;;;12.80;12.13;;;;;;;;;;5023509;28;20021;-61
2024/01/24 10:25:09;;;;;;;11.80;11.23;;;;;;;;;;5027342;28;20028;-61
2024/01/24 10:27:37;;;;;;;11.75;11.15;;;;;;;;;;5028269;28;20071;-60
2024/01/24 10:30:02;;;;;;;11.77;11.18;;;;;;;;;;5028865;28;20029;-62
2024/01/24 10:32:28;;;;;;;11.82;11.23;;;;;;;;;;5024230;28;20021;-63
2024/01/24 10:34:53;;;;;;;12.50;11.88;;;;;;;;;;5043188;28;20028;-62
2024/01/24 10:37:19;;;;;;;12.18;11.57;;;;;;;;;;5027425;28;20044;-62
2024/01/24 10:39:44;;;;;;;12.23;11.63;;;;;;;;;;5024928;28;20025;-62
2024/01/24 10:42:10;;;;;;;12.13;11.52;;;;;;;;;;5023583;28;20014;-62
2024/01/24 10:44:35;;;;;;;12.93;12.23;;;;;;;;;;5025504;28;20018;-62
2024/01/24 10:47:04;;;;;;;13.20;12.50;;;;;;;;;;5026967;28;20053;-61
2024/01/24 10:49:30;;;;;;;11.98;11.38;;;;;;;;;;5024298;28;20112;-61
2024/01/24 10:51:56;;;;;;;12.30;11.70;;;;;;;;;;5018004;28;20046;-61
2024/01/24 10:54:21;;;;;;;12.80;12.10;;;;;;;;;;5024277;28;20475;-61
2024/01/24 10:56:49;;;;;;;13.57;12.80;;;;;;;;;;5024198;28;20067;-61
2024/01/24 10:59:15;;;;;;;12.25;11.65;;;;;;;;;;5025356;28;20025;-61
2024/01/24 11:01:41;;;;;;;12.52;11.82;;;;;;;;;;5021767;28;20659;-61
2024/01/24 11:04:07;;;;;;;12.85;12.15;;;;;;;;;;5025309;28;20023;-62
2024/01/24 11:06:33;;;;;;;12.27;11.68;;;;;;;;;;5025117;28;20013;-62
2024/01/24 11:08:58;;;;;;;11.70;11.10;;;;;;;;;;5026129;28;20053;-62
2024/01/24 11:11:29;;;;;;;12.23;11.63;;;;;;;;;;5023384;28;20123;-62
2024/01/24 11:13:57;;;;;;;11.25;10.70;;;;;;;;;;5024262;28;20061;-62
2024/01/24 11:16:25;;;;;;;11.43;10.88;;;;;;;;;;5023847;28;20024;-61
2024/01/24 11:18:50;;;;;;;11.95;11.35;;;;;;;;;;5026828;28;20132;-62
2024/01/24 11:21:19;;;;;;;12.05;11.45;;;;;;;;;;5021100;28;20049;-62
2024/01/24 11:23:47;;;;;;;12.02;11.43;;;;;;;;;;5025273;28;20014;-62
2024/01/24 11:26:32;;;;;;;11.93;11.32;;;;;;;;;;5026992;28;20467;-62
2024/01/24 11:29:10;;;;;;;11.88;11.27;;;;;;;;;;5024756;28;20030;-61
2024/01/24 11:31:39;;;;;;;10.90;10.40;;;;;;;;;;5022375;28;20067;-61
2024/01/24 11:34:05;;;;;;;11.57;10.98;;;;;;;;;;5018929;28;20097;-61
2024/01/24 11:36:31;;;;;;;11.98;11.38;;;;;;;;;;5020377;28;20104;-61
2024/01/24 11:38:56;;;;;;;11.70;11.10;;;;;;;;;;5019815;28;20073;-60
2024/01/24 11:41:23;;;;;;;12.07;11.48;;;;;;;;;;5030042;28;20029;-61
2024/01/24 11:43:49;;;;;;;11.55;10.95;;;;;;;;;;5021267;28;20071;-62
2024/01/24 11:46:14;;;;;;;11.93;11.32;;;;;;;;;;5023998;28;20447;-62
2024/01/24 11:48:40;;;;;;;11.10;10.60;;;;;;;;;;5023800;28;20087;-62
2024/01/24 11:51:07;;;;;;;11.32;10.82;;;;;;;;;;5023737;28;20025;-63
2024/01/24 11:53:32;;;;;;;11.65;11.05;;;;;;;;;;5025610;28;20041;-62
2024/01/24 11:56:02;;;;;;;12.50;11.90;;;;;;;;;;5023508;28;20096;-62
2024/01/24 11:58:28;;;;;;;11.85;11.25;;;;;;;;;;5032202;28;20486;-60
2024/01/24 12:00:58;;;;;;;11.80;11.20;;;;;;;;;;5024433;28;20026;-60
2024/01/24 12:03:23;;;;;;;11.70;11.13;;;;;;;;;;5024380;28;20029;-61
2024/01/24 12:05:49;;;;;;;11.32;10.82;;;;;;;;;;5028418;28;20024;-61
2024/01/24 12:08:14;;;;;;;12.20;11.60;;;;;;;;;;5027176;28;20049;-62
2024/01/24 12:10:40;;;;;;;12.30;11.70;;;;;;;;;;5026042;28;20525;-60
2024/01/24 12:13:06;;;;;;;11.10;10.60;;;;;;;;;;5024555;28;20472;-60
2024/01/24 12:15:36;;;;;;;11.77;11.18;;;;;;;;;;5022962;28;20399;-62
2024/01/24 12:18:05;;;;;;;12.23;11.63;;;;;;;;;;5019666;28;20067;-61
2024/01/24 12:20:31;;;;;;;11.90;11.30;;;;;;;;;;5026196;28;20026;-61
2024/01/24 12:22:56;;;;;;;12.18;11.57;;;;;;;;;;5018651;28;20160;-60
2024/01/24 12:25:22;;;;;;;11.95;11.35;;;;;;;;;;5027208;28;20025;-60
2024/01/24 12:27:48;;;;;;;12.30;11.70;;;;;;;;;;5023275;28;20009;-61
2024/01/24 12:30:14;;;;;;;12.13;11.52;;;;;;;;;;5024086;28;20383;-60
2024/01/24 12:32:40;;;;;;;12.02;11.43;;;;;;;;;;5026291;28;20064;-61
2024/01/24 12:35:06;;;;;;;11.27;10.77;;;;;;;;;;5027433;28;20022;-61
2024/01/24 12:37:32;;;;;;;11.55;11.02;;;;;;;;;;5027869;28;20037;-61
2024/01/24 12:40:03;;;;;;;11.35;10.85;;;;;;;;;;5024656;28;20024;-60
2024/01/24 12:42:29;;;;;;;11.38;10.85;;;;;;;;;;5025448;28;20014;-61
2024/01/24 12:44:54;;;;;;;11.30;10.80;;;;;;;;;;5032475;28;20028;-61
2024/01/24 12:47:20;;;;;;;12.55;11.95;;;;;;;;;;5024283;28;20113;-61
2024/01/24 12:49:45;;;;;;;11.82;11.23;;;;;;;;;;5033502;28;20025;-61
2024/01/24 12:52:10;;;;;;;11.98;11.38;;;;;;;;;;5026852;28;20523;-61
2024/01/24 12:54:36;;;;;;;11.80;11.20;;;;;;;;;;5027719;28;20387;-61
2024/01/24 12:57:01;;;;;;;11.80;11.20;;;;;;;;;;5027866;28;20120;-62
2024/01/24 12:59:28;;;;;;;11.63;11.02;;;;;;;;;;5040758;28;20075;-61
2024/01/24 13:01:56;;;;;;;12.13;11.52;;;;;;;;;;5022723;28;20053;-62
2024/01/24 13:04:22;;;;;;;11.85;11.25;;;;;;;;;;5026938;28;20026;-62
2024/01/24 13:06:47;;;;;;;11.55;10.95;;;;;;;;;;5026450;28;20017;-61
2024/01/24 13:09:12;;;;;;;11.57;10.98;;;;;;;;;;5022409;28;20539;-62
2024/01/24 13:11:38;;;;;;;11.23;10.73;;;;;;;;;;5028468;28;20029;-61
2024/01/24 13:14:03;;;;;;;11.10;10.60;;;;;;;;;;5031139;28;20025;-61
2024/01/24 13:16:29;;;;;;;11.10;10.60;;;;;;;;;;5027717;28;20033;-63
2024/01/24 13:18:54;;;;;;;13.80;13.10;;;;;;;;;;5029651;28;20032;-60
2024/01/24 13:21:20;;;;;;;13.90;13.15;;;;;;;;;;5030057;28;20044;-61
2024/01/24 13:23:45;;;;;;;12.43;11.82;;;;;;;;;;5027522;28;20064;-61
2024/01/24 13:26:11;;;;;;;11.80;11.20;;;;;;;;;;5025862;28;20391;-61
2024/01/24 13:28:36;;;;;;;11.90;11.30;;;;;;;;;;5023197;28;20037;-61
2024/01/24 13:31:01;;;;;;;12.43;11.82;;;;;;;;;;5024454;28;20017;-61
2024/01/24 13:33:27;;;;;;;11.80;11.20;;;;;;;;;;5020681;28;20518;-63
2024/01/24 13:35:52;;;;;;;11.98;11.38;;;;;;;;;;5020343;28;20022;-60
2024/01/24 13:38:17;;;;;;;11.65;11.05;;;;;;;;;;5024857;28;20391;-60
2024/01/24 13:40:44;;;;;;;11.20;10.70;;;;;;;;;;5031669;28;20017;-61
2024/01/24 13:43:09;;;;;;;11.00;10.50;;;;;;;;;;5023693;28;20105;-61
2024/01/24 13:45:35;;;;;;;11.70;11.10;;;;;;;;;;5022766;28;20120;-62
2024/01/24 13:48:02;;;;;;;12.10;11.50;;;;;;;;;;5023717;28;20029;-62
2024/01/24 13:50:27;;;;;;;11.70;11.10;;;;;;;;;;5025392;28;20136;-62
2024/01/24 13:52:52;;;;;;;11.70;11.10;;;;;;;;;;5025164;28;20140;-62
2024/01/24 13:55:18;;;;;;;11.32;10.80;;;;;;;;;;5025071;28;20519;-61
2024/01/24 13:57:43;;;;;;;12.02;11.43;;;;;;;;;;5024023;28;20236;-62
2024/01/24 14:00:11;;;;;;;11.93;11.32;;;;;;;;;;5028059;28;20087;-61
2024/01/24 14:02:36;;;;;;;12.00;11.40;;;;;;;;;;5026280;28;20537;-61
2024/01/24 14:05:02;;;;;;;11.27;10.77;;;;;;;;;;5024672;28;20025;-61
2024/01/24 14:07:27;;;;;;;12.02;11.43;;;;;;;;;;5023907;28;20099;-62
2024/01/24 14:09:52;;;;;;;12.82;12.13;;;;;;;;;;5042566;28;20025;-62
2024/01/24 14:12:18;;;;;;;12.75;12.05;;;;;;;;;;5023757;28;20467;-62
2024/01/24 14:14:43;;;;;;;12.23;11.63;;;;;;;;;;5030471;28;20439;-61